sensor_id;sensor_type;location;lat;lon;timestamp;pressure;altitude;pressure_sealevel;temperature
16956;BMP180;8594;52.052;8.354;2023-07-16T08:36:10;100341.00;;;25.40
16956;BMP180;8594;52.052;8.354;2023-07-16T08:38:37;100357.00;;;25.40
16956;BMP180;8594;52.052;8.354;2023-07-16T08:41:04;100360.00;;;26.10
16956;BMP180;8594;52.052;8.354;2023-07-16T08:43:33;100352.00;;;26.40
16956;BMP180;8594;52.052;8.354;2023-07-16T08:46:01;100359.00;;;26.90
16956;BMP180;8594;52.052;8.354;2023-07-16T08:48:29;100363.00;;;26.20
16956;BMP180;8594;52.052;8.354;2023-07-16T08:50:58;100361.00;;;26.10
16956;BMP180;8594;52.052;8.354;2023-07-16T08:53:27;100364.00;;;26.50
16956;BMP180;8594;52.052;8.354;2023-07-16T08:55:54;100358.00;;;26.30
16956;BMP180;8594;52.052;8.354;2023-07-16T08:58:23;100368.00;;;27.10
16956;BMP180;8594;52.052;8.354;2023-07-16T09:00:51;100369.00;;;27.30
16956;BMP180;8594;52.052;8.354;2023-07-16T09:03:18;100382.00;;;26.70
16956;BMP180;8594;52.052;8.354;2023-07-16T09:05:45;100392.00;;;26.80
16956;BMP180;8594;52.052;8.354;2023-07-16T09:08:12;100394.00;;;26.70
16956;BMP180;8594;52.052;8.354;2023-07-16T09:10:42;100378.00;;;27.10
16956;BMP180;8594;52.052;8.354;2023-07-16T09:13:10;100375.00;;;27.00
16956;BMP180;8594;52.052;8.354;2023-07-16T09:15:37;100378.00;;;27.80
16956;BMP180;8594;52.052;8.354;2023-07-16T09:18:05;100383.00;;;27.70
16956;BMP180;8594;52.052;8.354;2023-07-16T09:20:32;100386.00;;;27.20
16956;BMP180;8594;52.052;8.354;2023-07-16T09:22:59;100386.00;;;27.80
16956;BMP180;8594;52.052;8.354;2023-07-16T09:25:27;100379.00;;;27.80
16956;BMP180;8594;52.052;8.354;2023-07-16T09:27:57;100373.00;;;27.50
16956;BMP180;8594;52.052;8.354;2023-07-16T09:30:24;100394.00;;;27.40
16956;BMP180;8594;52.052;8.354;2023-07-16T09:32:51;100392.00;;;27.70
16956;BMP180;8594;52.052;8.354;2023-07-16T09:35:18;100405.00;;;28.10
16956;BMP180;8594;52.052;8.354;2023-07-16T09:37:45;100392.00;;;26.90
16956;BMP180;8594;52.052;8.354;2023-07-16T09:40:12;100400.00;;;27.50
16956;BMP180;8594;52.052;8.354;2023-07-16T09:42:41;100392.00;;;27.50
16956;BMP180;8594;52.052;8.354;2023-07-16T09:45:18;100408.00;;;27.70
16956;BMP180;8594;52.052;8.354;2023-07-16T09:47:45;100398.00;;;28.10
16956;BMP180;8594;52.052;8.354;2023-07-16T09:50:12;100401.00;;;27.70
16956;BMP180;8594;52.052;8.354;2023-07-16T09:52:40;100407.00;;;27.70
16956;BMP180;8594;52.052;8.354;2023-07-16T09:55:09;100400.00;;;27.20
16956;BMP180;8594;52.052;8.354;2023-07-16T09:57:41;100405.00;;;27.90
16956;BMP180;8594;52.052;8.354;2023-07-16T10:00:12;100404.00;;;28.00
16956;BMP180;8594;52.052;8.354;2023-07-16T10:02:41;100418.00;;;27.70
16956;BMP180;8594;52.052;8.354;2023-07-16T10:05:13;100413.00;;;27.40
16956;BMP180;8594;52.052;8.354;2023-07-16T10:07:40;100414.00;;;27.50
16956;BMP180;8594;52.052;8.354;2023-07-16T10:10:09;100416.00;;;28.00
16956;BMP180;8594;52.052;8.354;2023-07-16T10:12:37;100409.00;;;27.60
16956;BMP180;8594;52.052;8.354;2023-07-16T10:15:05;100407.00;;;27.90
16956;BMP180;8594;52.052;8.354;2023-07-16T10:17:34;100408.00;;;27.30
16956;BMP180;8594;52.052;8.354;2023-07-16T10:20:05;100415.00;;;27.70
16956;BMP180;8594;52.052;8.354;2023-07-16T10:22:35;100436.00;;;27.60
16956;BMP180;8594;52.052;8.354;2023-07-16T10:25:05;100421.00;;;27.10
16956;BMP180;8594;52.052;8.354;2023-07-16T10:27:34;100436.00;;;27.50
16956;BMP180;8594;52.052;8.354;2023-07-16T10:30:03;100432.00;;;28.30
16956;BMP180;8594;52.052;8.354;2023-07-16T10:32:32;100421.00;;;27.80
16956;BMP180;8594;52.052;8.354;2023-07-16T10:35:01;100435.00;;;27.20
16956;BMP180;8594;52.052;8.354;2023-07-16T10:37:29;100436.00;;;27.50
16956;BMP180;8594;52.052;8.354;2023-07-16T10:40:01;100443.00;;;27.60
16956;BMP180;8594;52.052;8.354;2023-07-16T10:42:30;100443.00;;;27.20
16956;BMP180;8594;52.052;8.354;2023-07-16T10:45:00;100454.00;;;26.90
16956;BMP180;8594;52.052;8.354;2023-07-16T10:47:31;100454.00;;;27.30
16956;BMP180;8594;52.052;8.354;2023-07-16T10:50:04;100447.00;;;26.50
16956;BMP180;8594;52.052;8.354;2023-07-16T10:52:31;100463.00;;;27.10
16956;BMP180;8594;52.052;8.354;2023-07-16T10:54:58;100455.00;;;27.20
16956;BMP180;8594;52.052;8.354;2023-07-16T10:57:26;100447.00;;;27.40
16956;BMP180;8594;52.052;8.354;2023-07-16T10:59:56;100442.00;;;28.30
16956;BMP180;8594;52.052;8.354;2023-07-16T11:02:24;100464.00;;;27.60
16956;BMP180;8594;52.052;8.354;2023-07-16T11:04:52;100456.00;;;27.50
16956;BMP180;8594;52.052;8.354;2023-07-16T11:07:22;100441.00;;;28.10
16956;BMP180;8594;52.052;8.354;2023-07-16T11:09:50;100460.00;;;28.50
16956;BMP180;8594;52.052;8.354;2023-07-16T11:12:21;100447.00;;;28.30
16956;BMP180;8594;52.052;8.354;2023-07-16T11:14:50;100449.00;;;28.40
16956;BMP180;8594;52.052;8.354;2023-07-16T11:17:18;100461.00;;;28.10
16956;BMP180;8594;52.052;8.354;2023-07-16T11:19:47;100444.00;;;27.70
16956;BMP180;8594;52.052;8.354;2023-07-16T11:22:15;100449.00;;;28.10
16956;BMP180;8594;52.052;8.354;2023-07-16T11:24:45;100438.00;;;27.30
16956;BMP180;8594;52.052;8.354;2023-07-16T11:27:17;100447.00;;;27.80
16956;BMP180;8594;52.052;8.354;2023-07-16T11:29:49;100441.00;;;28.50
16956;BMP180;8594;52.052;8.354;2023-07-16T11:32:28;100444.00;;;27.60
16956;BMP180;8594;52.052;8.354;2023-07-16T11:34:55;100449.00;;;28.70
16956;BMP180;8594;52.052;8.354;2023-07-16T11:37:24;100446.00;;;27.90
16956;BMP180;8594;52.052;8.354;2023-07-16T11:39:55;100451.00;;;27.70
16956;BMP180;8594;52.052;8.354;2023-07-16T11:42:30;100465.00;;;28.00
16956;BMP180;8594;52.052;8.354;2023-07-16T11:44:58;100468.00;;;27.70
16956;BMP180;8594;52.052;8.354;2023-07-16T11:47:25;100454.00;;;28.20
16956;BMP180;8594;52.052;8.354;2023-07-16T11:49:53;100456.00;;;27.70
16956;BMP180;8594;52.052;8.354;2023-07-16T11:52:23;100464.00;;;28.10
16956;BMP180;8594;52.052;8.354;2023-07-16T11:54:53;100467.00;;;27.90
16956;BMP180;8594;52.052;8.354;2023-07-16T11:57:20;100463.00;;;27.90
16956;BMP180;8594;52.052;8.354;2023-07-16T11:59:47;100462.00;;;28.10
16956;BMP180;8594;52.052;8.354;2023-07-16T12:02:14;100468.00;;;28.60
16956;BMP180;8594;52.052;8.354;2023-07-16T12:04:41;100476.00;;;27.90
16956;BMP180;8594;52.052;8.354;2023-07-16T12:07:09;100476.00;;;27.70
16956;BMP180;8594;52.052;8.354;2023-07-16T12:09:36;100472.00;;;28.50
16956;BMP180;8594;52.052;8.354;2023-07-16T12:12:06;100476.00;;;28.70
16956;BMP180;8594;52.052;8.354;2023-07-16T12:14:33;100477.00;;;29.00
16956;BMP180;8594;52.052;8.354;2023-07-16T12:17:00;100476.00;;;28.60
16956;BMP180;8594;52.052;8.354;2023-07-16T12:19:27;100476.00;;;29.30
16956;BMP180;8594;52.052;8.354;2023-07-16T12:21:58;100479.00;;;29.00
16956;BMP180;8594;52.052;8.354;2023-07-16T12:24:25;100476.00;;;29.20
16956;BMP180;8594;52.052;8.354;2023-07-16T12:26:52;100470.00;;;29.10
16956;BMP180;8594;52.052;8.354;2023-07-16T12:29:20;100474.00;;;29.20
16956;BMP180;8594;52.052;8.354;2023-07-16T12:31:47;100472.00;;;29.30
16956;BMP180;8594;52.052;8.354;2023-07-16T12:34:14;100468.00;;;29.40
16956;BMP180;8594;52.052;8.354;2023-07-16T12:36:41;100469.00;;;29.00
16956;BMP180;8594;52.052;8.354;2023-07-16T12:39:08;100476.00;;;28.80
16956;BMP180;8594;52.052;8.354;2023-07-16T12:41:35;100474.00;;;29.50
16956;BMP180;8594;52.052;8.354;2023-07-16T12:44:02;100492.00;;;29.20
16956;BMP180;8594;52.052;8.354;2023-07-16T12:46:30;100492.00;;;28.90
16956;BMP180;8594;52.052;8.354;2023-07-16T12:48:57;100485.00;;;29.20
16956;BMP180;8594;52.052;8.354;2023-07-16T12:51:24;100494.00;;;29.40
16956;BMP180;8594;52.052;8.354;2023-07-16T12:53:51;100486.00;;;29.20
16956;BMP180;8594;52.052;8.354;2023-07-16T12:56:17;100485.00;;;29.00
16956;BMP180;8594;52.052;8.354;2023-07-16T12:58:44;100498.00;;;28.80
16956;BMP180;8594;52.052;8.354;2023-07-16T13:01:11;100498.00;;;28.60
16956;BMP180;8594;52.052;8.354;2023-07-16T13:03:39;100508.00;;;28.70
16956;BMP180;8594;52.052;8.354;2023-07-16T13:06:07;100500.00;;;28.40
16956;BMP180;8594;52.052;8.354;2023-07-16T13:08:33;100496.00;;;28.60
16956;BMP180;8594;52.052;8.354;2023-07-16T13:11:01;100504.00;;;28.60
16956;BMP180;8594;52.052;8.354;2023-07-16T13:13:28;100501.00;;;28.30
16956;BMP180;8594;52.052;8.354;2023-07-16T13:15:55;100495.00;;;28.90
16956;BMP180;8594;52.052;8.354;2023-07-16T13:18:22;100507.00;;;29.30
16956;BMP180;8594;52.052;8.354;2023-07-16T13:20:51;100505.00;;;29.50
16956;BMP180;8594;52.052;8.354;2023-07-16T13:23:17;100504.00;;;29.70
16956;BMP180;8594;52.052;8.354;2023-07-16T13:25:44;100514.00;;;29.50
16956;BMP180;8594;52.052;8.354;2023-07-16T13:28:11;100506.00;;;29.70
16956;BMP180;8594;52.052;8.354;2023-07-16T13:30:39;100504.00;;;29.30
16956;BMP180;8594;52.052;8.354;2023-07-16T13:33:06;100506.00;;;29.00
16956;BMP180;8594;52.052;8.354;2023-07-16T13:35:33;100503.00;;;29.20
16956;BMP180;8594;52.052;8.354;2023-07-16T13:38:01;100499.00;;;29.20
16956;BMP180;8594;52.052;8.354;2023-07-16T13:40:28;100503.00;;;28.60
16956;BMP180;8594;52.052;8.354;2023-07-16T13:42:55;100515.00;;;28.90
16956;BMP180;8594;52.052;8.354;2023-07-16T13:45:22;100509.00;;;29.10
16956;BMP180;8594;52.052;8.354;2023-07-16T13:47:49;100504.00;;;29.90
16956;BMP180;8594;52.052;8.354;2023-07-16T13:50:18;100517.00;;;29.30
16956;BMP180;8594;52.052;8.354;2023-07-16T13:52:45;100521.00;;;29.30
16956;BMP180;8594;52.052;8.354;2023-07-16T13:55:13;100520.00;;;29.10
16956;BMP180;8594;52.052;8.354;2023-07-16T13:57:40;100529.00;;;28.70
16956;BMP180;8594;52.052;8.354;2023-07-16T14:00:10;100528.00;;;28.70
16956;BMP180;8594;52.052;8.354;2023-07-16T14:02:37;100518.00;;;29.10
16956;BMP180;8594;52.052;8.354;2023-07-16T14:05:04;100520.00;;;28.00
16956;BMP180;8594;52.052;8.354;2023-07-16T14:07:31;100517.00;;;28.40
16956;BMP180;8594;52.052;8.354;2023-07-16T14:09:58;100514.00;;;29.30
16956;BMP180;8594;52.052;8.354;2023-07-16T14:12:26;100520.00;;;29.30
16956;BMP180;8594;52.052;8.354;2023-07-16T14:14:53;100524.00;;;29.20
16956;BMP180;8594;52.052;8.354;2023-07-16T14:17:20;100523.00;;;29.20
16956;BMP180;8594;52.052;8.354;2023-07-16T14:19:48;100537.00;;;28.60
16956;BMP180;8594;52.052;8.354;2023-07-16T14:22:15;100531.00;;;28.60
16956;BMP180;8594;52.052;8.354;2023-07-16T14:24:42;100524.00;;;28.40
16956;BMP180;8594;52.052;8.354;2023-07-16T14:27:10;100532.00;;;28.70
16956;BMP180;8594;52.052;8.354;2023-07-16T14:29:39;100530.00;;;28.80
16956;BMP180;8594;52.052;8.354;2023-07-16T14:32:07;100522.00;;;28.60
16956;BMP180;8594;52.052;8.354;2023-07-16T14:34:34;100524.00;;;28.70
16956;BMP180;8594;52.052;8.354;2023-07-16T14:37:02;100524.00;;;28.60
16956;BMP180;8594;52.052;8.354;2023-07-16T14:39:30;100521.00;;;29.10
16956;BMP180;8594;52.052;8.354;2023-07-16T14:41:57;100524.00;;;28.70
16956;BMP180;8594;52.052;8.354;2023-07-16T14:44:28;100527.00;;;28.90
16956;BMP180;8594;52.052;8.354;2023-07-16T14:46:58;100513.00;;;28.70
16956;BMP180;8594;52.052;8.354;2023-07-16T14:49:25;100515.00;;;28.70
16956;BMP180;8594;52.052;8.354;2023-07-16T14:51:52;100519.00;;;28.80
16956;BMP180;8594;52.052;8.354;2023-07-16T14:54:20;100527.00;;;28.70
16956;BMP180;8594;52.052;8.354;2023-07-16T14:56:47;100521.00;;;29.20
16956;BMP180;8594;52.052;8.354;2023-07-16T14:59:14;100521.00;;;29.10
16956;BMP180;8594;52.052;8.354;2023-07-16T15:01:41;100531.00;;;28.70
16956;BMP180;8594;52.052;8.354;2023-07-16T15:04:09;100534.00;;;28.60
16956;BMP180;8594;52.052;8.354;2023-07-16T15:06:36;100528.00;;;27.90
16956;BMP180;8594;52.052;8.354;2023-07-16T15:09:04;100533.00;;;28.00
16956;BMP180;8594;52.052;8.354;2023-07-16T15:11:30;100526.00;;;28.20
16956;BMP180;8594;52.052;8.354;2023-07-16T15:14:00;100532.00;;;28.30
16956;BMP180;8594;52.052;8.354;2023-07-16T15:16:27;100521.00;;;28.10
16956;BMP180;8594;52.052;8.354;2023-07-16T15:18:55;100527.00;;;28.20
16956;BMP180;8594;52.052;8.354;2023-07-16T15:21:23;100523.00;;;28.20
16956;BMP180;8594;52.052;8.354;2023-07-16T15:23:50;100526.00;;;28.40
16956;BMP180;8594;52.052;8.354;2023-07-16T15:26:17;100524.00;;;28.30
16956;BMP180;8594;52.052;8.354;2023-07-16T15:28:43;100526.00;;;28.30
16956;BMP180;8594;52.052;8.354;2023-07-16T15:31:11;100527.00;;;28.30
16956;BMP180;8594;52.052;8.354;2023-07-16T15:33:38;100520.00;;;28.50
16956;BMP180;8594;52.052;8.354;2023-07-16T15:36:06;100518.00;;;28.20
16956;BMP180;8594;52.052;8.354;2023-07-16T15:38:34;100515.00;;;28.20
16956;BMP180;8594;52.052;8.354;2023-07-16T15:41:01;100517.00;;;28.40
16956;BMP180;8594;52.052;8.354;2023-07-16T15:43:28;100522.00;;;28.30
16956;BMP180;8594;52.052;8.354;2023-07-16T15:45:54;100531.00;;;28.00
16956;BMP180;8594;52.052;8.354;2023-07-16T15:48:22;100530.00;;;27.90
16956;BMP180;8594;52.052;8.354;2023-07-16T15:50:52;100528.00;;;28.40
16956;BMP180;8594;52.052;8.354;2023-07-16T15:53:22;100532.00;;;28.40
16956;BMP180;8594;52.052;8.354;2023-07-16T15:55:51;100522.00;;;28.70
16956;BMP180;8594;52.052;8.354;2023-07-16T15:58:18;100526.00;;;28.60
16956;BMP180;8594;52.052;8.354;2023-07-16T16:00:45;100531.00;;;28.70
16956;BMP180;8594;52.052;8.354;2023-07-16T16:03:12;100531.00;;;28.50
16956;BMP180;8594;52.052;8.354;2023-07-16T16:05:39;100527.00;;;28.60
16956;BMP180;8594;52.052;8.354;2023-07-16T16:08:14;100522.00;;;28.40
16956;BMP180;8594;52.052;8.354;2023-07-16T16:10:44;100530.00;;;28.40
16956;BMP180;8594;52.052;8.354;2023-07-16T16:13:14;100522.00;;;28.20
16956;BMP180;8594;52.052;8.354;2023-07-16T16:15:41;100531.00;;;28.60
16956;BMP180;8594;52.052;8.354;2023-07-16T16:18:09;100516.00;;;28.30
16956;BMP180;8594;52.052;8.354;2023-07-16T16:20:37;100523.00;;;28.60
16956;BMP180;8594;52.052;8.354;2023-07-16T16:23:04;100524.00;;;28.10
16956;BMP180;8594;52.052;8.354;2023-07-16T16:25:32;100515.00;;;28.00
16956;BMP180;8594;52.052;8.354;2023-07-16T16:28:02;100527.00;;;28.10
16956;BMP180;8594;52.052;8.354;2023-07-16T16:30:31;100521.00;;;28.10
16956;BMP180;8594;52.052;8.354;2023-07-16T16:32:59;100511.00;;;28.00
16956;BMP180;8594;52.052;8.354;2023-07-16T16:35:31;100521.00;;;28.30
16956;BMP180;8594;52.052;8.354;2023-07-16T16:37:58;100520.00;;;27.70
16956;BMP180;8594;52.052;8.354;2023-07-16T16:40:25;100515.00;;;27.60
16956;BMP180;8594;52.052;8.354;2023-07-16T16:42:52;100519.00;;;27.70
16956;BMP180;8594;52.052;8.354;2023-07-16T16:45:20;100517.00;;;27.90
16956;BMP180;8594;52.052;8.354;2023-07-16T16:47:48;100518.00;;;28.10
16956;BMP180;8594;52.052;8.354;2023-07-16T16:50:15;100526.00;;;28.20
16956;BMP180;8594;52.052;8.354;2023-07-16T16:52:42;100524.00;;;27.90
16956;BMP180;8594;52.052;8.354;2023-07-16T16:55:09;100517.00;;;28.30
16956;BMP180;8594;52.052;8.354;2023-07-16T16:57:36;100513.00;;;27.80
16956;BMP180;8594;52.052;8.354;2023-07-16T17:00:04;100513.00;;;27.30
16956;BMP180;8594;52.052;8.354;2023-07-16T17:02:36;100513.00;;;27.60
16956;BMP180;8594;52.052;8.354;2023-07-16T17:05:06;100510.00;;;27.70
16956;BMP180;8594;52.052;8.354;2023-07-16T17:07:33;100509.00;;;27.20
16956;BMP180;8594;52.052;8.354;2023-07-16T17:10:00;100513.00;;;27.30
16956;BMP180;8594;52.052;8.354;2023-07-16T17:12:27;100512.00;;;27.50
16956;BMP180;8594;52.052;8.354;2023-07-16T17:14:54;100509.00;;;27.90
16956;BMP180;8594;52.052;8.354;2023-07-16T17:17:21;100522.00;;;28.10
16956;BMP180;8594;52.052;8.354;2023-07-16T17:19:48;100519.00;;;28.00
16956;BMP180;8594;52.052;8.354;2023-07-16T17:22:16;100525.00;;;27.90
16956;BMP180;8594;52.052;8.354;2023-07-16T17:24:44;100521.00;;;28.00
16956;BMP180;8594;52.052;8.354;2023-07-16T17:27:11;100528.00;;;28.20
16956;BMP180;8594;52.052;8.354;2023-07-16T17:29:42;100522.00;;;27.80
16956;BMP180;8594;52.052;8.354;2023-07-16T17:32:09;100531.00;;;28.00
16956;BMP180;8594;52.052;8.354;2023-07-16T17:34:36;100536.00;;;27.90
16956;BMP180;8594;52.052;8.354;2023-07-16T17:37:05;100535.00;;;27.60
16956;BMP180;8594;52.052;8.354;2023-07-16T17:39:34;100540.00;;;27.70
16956;BMP180;8594;52.052;8.354;2023-07-16T17:42:00;100542.00;;;27.80
16956;BMP180;8594;52.052;8.354;2023-07-16T17:44:28;100545.00;;;27.80
16956;BMP180;8594;52.052;8.354;2023-07-16T17:46:55;100549.00;;;27.60
16956;BMP180;8594;52.052;8.354;2023-07-16T17:49:23;100542.00;;;27.60
16956;BMP180;8594;52.052;8.354;2023-07-16T17:51:50;100547.00;;;28.00
16956;BMP180;8594;52.052;8.354;2023-07-16T17:54:17;100533.00;;;27.60
16956;BMP180;8594;52.052;8.354;2023-07-16T17:56:46;100544.00;;;27.80
16956;BMP180;8594;52.052;8.354;2023-07-16T17:59:13;100546.00;;;27.80
16956;BMP180;8594;52.052;8.354;2023-07-16T18:01:40;100548.00;;;27.80
16956;BMP180;8594;52.052;8.354;2023-07-16T18:04:07;100547.00;;;27.50
16956;BMP180;8594;52.052;8.354;2023-07-16T18:06:34;100547.00;;;27.60
16956;BMP180;8594;52.052;8.354;2023-07-16T18:09:01;100549.00;;;27.50
16956;BMP180;8594;52.052;8.354;2023-07-16T18:11:28;100551.00;;;27.40
16956;BMP180;8594;52.052;8.354;2023-07-16T18:13:56;100558.00;;;27.50
16956;BMP180;8594;52.052;8.354;2023-07-16T18:16:23;100551.00;;;27.30
16956;BMP180;8594;52.052;8.354;2023-07-16T18:18:50;100542.00;;;27.40
16956;BMP180;8594;52.052;8.354;2023-07-16T18:21:17;100550.00;;;27.30
16956;BMP180;8594;52.052;8.354;2023-07-16T18:23:45;100546.00;;;27.40
16956;BMP180;8594;52.052;8.354;2023-07-16T18:26:12;100548.00;;;27.60
16956;BMP180;8594;52.052;8.354;2023-07-16T18:28:39;100542.00;;;27.40
16956;BMP180;8594;52.052;8.354;2023-07-16T18:31:07;100544.00;;;27.40
16956;BMP180;8594;52.052;8.354;2023-07-16T18:33:34;100545.00;;;27.40
16956;BMP180;8594;52.052;8.354;2023-07-16T18:36:01;100555.00;;;27.50
16956;BMP180;8594;52.052;8.354;2023-07-16T18:38:27;100554.00;;;27.30
16956;BMP180;8594;52.052;8.354;2023-07-16T18:40:54;100553.00;;;27.30
16956;BMP180;8594;52.052;8.354;2023-07-16T18:43:21;100554.00;;;27.10
16956;BMP180;8594;52.052;8.354;2023-07-16T18:45:48;100544.00;;;27.30
16956;BMP180;8594;52.052;8.354;2023-07-16T18:48:17;100550.00;;;27.40
16956;BMP180;8594;52.052;8.354;2023-07-16T18:50:43;100559.00;;;27.30
16956;BMP180;8594;52.052;8.354;2023-07-16T18:53:10;100552.00;;;27.20
16956;BMP180;8594;52.052;8.354;2023-07-16T18:55:37;100558.00;;;27.30
16956;BMP180;8594;52.052;8.354;2023-07-16T18:58:05;100563.00;;;27.20
16956;BMP180;8594;52.052;8.354;2023-07-16T19:00:31;100565.00;;;27.20
16956;BMP180;8594;52.052;8.354;2023-07-16T19:02:58;100563.00;;;27.00
16956;BMP180;8594;52.052;8.354;2023-07-16T19:05:27;100572.00;;;27.10
16956;BMP180;8594;52.052;8.354;2023-07-16T19:07:53;100567.00;;;27.30
16956;BMP180;8594;52.052;8.354;2023-07-16T19:10:20;100571.00;;;27.20
16956;BMP180;8594;52.052;8.354;2023-07-16T19:12:47;100563.00;;;27.20
16956;BMP180;8594;52.052;8.354;2023-07-16T19:15:14;100569.00;;;27.00
16956;BMP180;8594;52.052;8.354;2023-07-16T19:17:41;100574.00;;;26.80
16956;BMP180;8594;52.052;8.354;2023-07-16T19:20:10;100564.00;;;26.70
16956;BMP180;8594;52.052;8.354;2023-07-16T19:22:38;100570.00;;;26.70
16956;BMP180;8594;52.052;8.354;2023-07-16T19:25:06;100575.00;;;26.90
16956;BMP180;8594;52.052;8.354;2023-07-16T19:27:33;100576.00;;;26.90
16956;BMP180;8594;52.052;8.354;2023-07-16T19:29:59;100586.00;;;26.80
16956;BMP180;8594;52.052;8.354;2023-07-16T19:32:27;100582.00;;;26.60
16956;BMP180;8594;52.052;8.354;2023-07-16T19:34:54;100591.00;;;26.50
16956;BMP180;8594;52.052;8.354;2023-07-16T19:37:20;100599.00;;;26.60
16956;BMP180;8594;52.052;8.354;2023-07-16T19:39:49;100600.00;;;26.40
16956;BMP180;8594;52.052;8.354;2023-07-16T19:42:15;100604.00;;;26.60
16956;BMP180;8594;52.052;8.354;2023-07-16T19:44:43;100607.00;;;26.40
16956;BMP180;8594;52.052;8.354;2023-07-16T19:47:10;100612.00;;;26.40
16956;BMP180;8594;52.052;8.354;2023-07-16T19:49:37;100611.00;;;26.20
16956;BMP180;8594;52.052;8.354;2023-07-16T19:52:05;100616.00;;;26.00
16956;BMP180;8594;52.052;8.354;2023-07-16T19:54:32;100621.00;;;26.00
16956;BMP180;8594;52.052;8.354;2023-07-16T19:56:59;100621.00;;;25.90
16956;BMP180;8594;52.052;8.354;2023-07-16T19:59:26;100623.00;;;25.80
16956;BMP180;8594;52.052;8.354;2023-07-16T20:01:53;100629.00;;;26.00
16956;BMP180;8594;52.052;8.354;2023-07-16T20:04:21;100619.00;;;26.10
16956;BMP180;8594;52.052;8.354;2023-07-16T20:06:48;100628.00;;;26.10
16956;BMP180;8594;52.052;8.354;2023-07-16T20:09:14;100627.00;;;26.20
16956;BMP180;8594;52.052;8.354;2023-07-16T20:11:41;100636.00;;;26.10
16956;BMP180;8594;52.052;8.354;2023-07-16T20:14:10;100640.00;;;26.00
16956;BMP180;8594;52.052;8.354;2023-07-16T20:16:37;100635.00;;;25.60
16956;BMP180;8594;52.052;8.354;2023-07-16T20:19:05;100630.00;;;25.80
16956;BMP180;8594;52.052;8.354;2023-07-16T20:21:31;100639.00;;;26.00
16956;BMP180;8594;52.052;8.354;2023-07-16T20:23:58;100639.00;;;26.10
16956;BMP180;8594;52.052;8.354;2023-07-16T20:26:26;100640.00;;;26.10
16956;BMP180;8594;52.052;8.354;2023-07-16T20:28:53;100630.00;;;25.80
16956;BMP180;8594;52.052;8.354;2023-07-16T20:31:21;100627.00;;;25.70
16956;BMP180;8594;52.052;8.354;2023-07-16T20:33:48;100638.00;;;25.40
16956;BMP180;8594;52.052;8.354;2023-07-16T20:36:15;100625.00;;;25.40
16956;BMP180;8594;52.052;8.354;2023-07-16T20:38:42;100632.00;;;25.70
16956;BMP180;8594;52.052;8.354;2023-07-16T20:41:09;100627.00;;;25.80
16956;BMP180;8594;52.052;8.354;2023-07-16T20:43:36;100629.00;;;25.60
16956;BMP180;8594;52.052;8.354;2023-07-16T20:46:03;100622.00;;;25.60
16956;BMP180;8594;52.052;8.354;2023-07-16T20:48:31;100632.00;;;25.70
16956;BMP180;8594;52.052;8.354;2023-07-16T20:50:59;100623.00;;;25.50
16956;BMP180;8594;52.052;8.354;2023-07-16T20:53:26;100630.00;;;25.30
16956;BMP180;8594;52.052;8.354;2023-07-16T20:55:52;100633.00;;;25.10
16956;BMP180;8594;52.052;8.354;2023-07-16T20:58:19;100632.00;;;24.90
16956;BMP180;8594;52.052;8.354;2023-07-16T21:00:46;100628.00;;;25.20
16956;BMP180;8594;52.052;8.354;2023-07-16T21:03:13;100616.00;;;24.90
16956;BMP180;8594;52.052;8.354;2023-07-16T21:05:42;100616.00;;;25.00
